createdAt,value
2018-09-18T00:05:02.272Z,97.50
2018-09-18T00:10:07.843Z,97.50
2018-09-18T00:20:28.197Z,97.70
2018-09-18T00:25:33.766Z,97.60
2018-09-18T00:30:39.395Z,98.20
2018-09-18T00:35:44.231Z,98.40
2018-09-18T00:40:49.053Z,98.50
2018-09-18T00:50:14.388Z,99.00
2018-09-18T00:55:22.127Z,99.50
2018-09-18T01:00:27.082Z,98.10
2018-09-18T01:05:32.130Z,97.70
2018-09-18T01:10:37.090Z,97.40
2018-09-18T01:15:42.845Z,97.00
2018-09-18T01:20:52.432Z,96.40
2018-09-18T01:25:58.096Z,96.10
2018-09-18T01:31:04.950Z,95.80
2018-09-18T01:49:13.229Z,95.80
2018-09-18T01:54:19.309Z,95.90
2018-09-18T01:59:27.540Z,96.90
2018-09-18T02:04:32.640Z,97.20
2018-09-18T02:09:37.961Z,97.30
2018-09-18T02:14:43.121Z,97.50
2018-09-18T02:19:49.713Z,97.60
2018-09-18T02:24:54.156Z,97.80
2018-09-18T02:29:58.651Z,98.00
2018-09-18T02:35:03.165Z,98.20
2018-09-18T02:40:07.792Z,98.70
2018-09-18T02:45:12.394Z,98.50
2018-09-18T02:50:17.326Z,98.50
2018-09-18T02:55:22.133Z,98.60
2018-09-18T03:00:27.116Z,98.70
2018-09-18T03:05:31.943Z,98.60
2018-09-18T03:10:36.907Z,98.60
2018-09-18T03:15:42.311Z,98.70
2018-09-18T03:21:00.399Z,98.80
2018-09-18T03:26:21.776Z,98.80
2018-09-18T03:31:26.618Z,99.10
2018-09-18T03:36:31.281Z,99.30
2018-09-18T03:41:36.026Z,99.60
2018-09-18T03:46:40.475Z,99.40
2018-09-18T03:51:45.040Z,99.90
2018-09-18T03:56:49.633Z,99.40
2018-09-18T04:01:54.631Z,99.40
2018-09-18T04:06:59.061Z,99.60
2018-09-18T04:12:03.461Z,99.70
2018-09-18T04:17:07.906Z,99.80
2018-09-18T04:22:13.296Z,99.90
2018-09-18T04:27:18.597Z,99.80
2018-09-18T04:32:23.072Z,99.90
2018-09-18T04:37:27.577Z,99.70
2018-09-18T04:42:32.151Z,99.90
2018-09-18T04:47:36.722Z,99.90
2018-09-18T04:52:41.121Z,99.90
2018-09-18T04:57:45.538Z,99.90
2018-09-18T05:02:50.146Z,99.90
2018-09-18T05:07:54.915Z,99.90
2018-09-18T05:12:59.352Z,99.60
2018-09-18T05:18:03.761Z,99.70
2018-09-18T05:23:08.939Z,99.60
2018-09-18T05:28:13.377Z,99.70
2018-09-18T05:33:17.837Z,99.50
2018-09-18T05:38:22.257Z,99.60
2018-09-18T05:43:26.691Z,99.60
2018-09-18T05:48:34.832Z,99.80
2018-09-18T05:53:39.872Z,99.70
2018-09-18T05:58:44.367Z,99.90
2018-09-18T06:03:48.962Z,99.40
2018-09-18T06:08:53.708Z,99.40
2018-09-18T06:13:58.972Z,99.30
2018-09-18T06:19:03.432Z,98.80
2018-09-18T06:24:08.169Z,98.60
2018-09-18T06:29:12.620Z,98.90
2018-09-18T06:34:18.394Z,98.40
2018-09-18T06:39:23.039Z,99.00
2018-09-18T06:44:27.612Z,99.30
2018-09-18T06:49:32.485Z,98.40
2018-09-18T06:54:36.943Z,97.50
2018-09-18T06:59:41.357Z,96.60
2018-09-18T07:04:46.061Z,96.30
2018-09-18T07:09:50.669Z,94.90
2018-09-18T07:14:55.160Z,93.70
2018-09-18T07:19:59.696Z,92.50
2018-09-18T07:25:04.182Z,91.40
2018-09-18T07:30:09.474Z,90.20
2018-09-18T07:35:15.172Z,89.40
2018-09-18T07:40:19.747Z,87.30
2018-09-18T07:45:24.345Z,86.70
2018-09-18T07:50:28.926Z,85.40
